Time;durP1;ratioP1;P1;durP2;ratioP2;P2;SDS_P1;SDS_P2;PMS_P1;PMS_P2;Temp;Humidity;BMP_temperature;BMP_pressure;BME280_temperature;BME280_humidity;BME280_pressure;Samples;Min_cycle;Max_cycle;Signal;HPM_P1;HPM_P2
2022/09/21 00:00:33;;;;;;;23.60;11.40;;;13.10;99.90;;;;;;5034164;28;20029;-68
2022/09/21 00:02:59;;;;;;;16.90;11.30;;;13.00;99.90;;;;;;5034297;28;20018;-67
2022/09/21 00:05:25;;;;;;;17.50;9.77;;;13.10;99.90;;;;;;5033956;28;20060;-67
2022/09/21 00:07:51;;;;;;;17.08;10.82;;;13.10;99.90;;;;;;5034024;28;20022;-67
2022/09/21 00:10:19;;;;;;;19.00;11.93;;;13.10;99.90;;;;;;5033904;28;20049;-67
2022/09/21 00:12:47;;;;;;;19.08;12.77;;;13.00;99.90;;;;;;5033893;28;20036;-67
2022/09/21 00:15:16;;;;;;;16.40;10.93;;;12.90;99.90;;;;;;5034058;28;20401;-67
2022/09/21 00:17:42;;;;;;;14.73;10.85;;;12.90;99.90;;;;;;5033503;28;20025;-67
2022/09/21 00:20:09;;;;;;;15.75;9.75;;;12.90;99.90;;;;;;5033585;28;20120;-66
2022/09/21 00:22:35;;;;;;;19.00;10.75;;;12.80;99.90;;;;;;5033494;28;20037;-68
2022/09/21 00:25:04;;;;;;;15.23;8.88;;;12.90;99.90;;;;;;5034368;28;20030;-67
2022/09/21 00:27:30;;;;;;;14.48;8.95;;;12.80;99.90;;;;;;5033455;28;20040;-66
2022/09/21 00:29:57;;;;;;;21.38;8.75;;;12.80;99.90;;;;;;5031028;28;20030;-66
2022/09/21 00:32:25;;;;;;;14.02;9.25;;;12.80;99.90;;;;;;5034509;28;20108;-66
2022/09/21 00:34:52;;;;;;;20.25;9.82;;;12.70;99.90;;;;;;5034237;28;20108;-67
2022/09/21 00:37:19;;;;;;;15.23;9.20;;;12.70;99.90;;;;;;5034252;28;20065;-66
2022/09/21 00:39:45;;;;;;;16.90;9.02;;;12.60;99.90;;;;;;5034447;28;20018;-66
2022/09/21 00:42:31;;;;;;;18.17;9.73;;;12.60;99.90;;;;;;5034281;28;20049;-67
2022/09/21 00:44:57;;;;;;;12.77;9.13;;;12.60;99.90;;;;;;5032323;28;20021;-68
2022/09/21 00:47:37;;;;;;;16.88;11.18;;;12.60;99.90;;;;;;5034594;28;20025;-67
2022/09/21 00:50:07;;;;;;;14.40;9.48;;;12.60;99.90;;;;;;5033013;28;20026;-67
2022/09/21 00:52:36;;;;;;;16.60;9.00;;;12.50;99.90;;;;;;5034089;28;20386;-66
2022/09/21 00:55:14;;;;;;;19.17;9.95;;;12.50;99.90;;;;;;5034184;28;20022;-67
2022/09/21 00:57:41;;;;;;;14.75;10.38;;;12.40;99.90;;;;;;5032206;28;20355;-67
2022/09/21 01:00:09;;;;;;;13.25;8.93;;;12.40;99.90;;;;;;5033355;28;20021;-67
2022/09/21 01:02:38;;;;;;;18.00;9.70;;;12.40;99.90;;;;;;5033475;28;20021;-67
2022/09/21 01:05:06;;;;;;;14.07;10.07;;;12.40;99.90;;;;;;5034387;28;20092;-67
2022/09/21 01:07:35;;;;;;;12.50;9.15;;;12.40;99.90;;;;;;5033048;28;20014;-66
2022/09/21 01:10:08;;;;;;;16.48;9.20;;;12.30;99.90;;;;;;5033665;28;20124;-67
2022/09/21 01:12:56;;;;;;;15.60;9.82;;;12.30;99.90;;;;;;5034070;28;20037;-67
2022/09/21 01:15:49;;;;;;;10.75;8.73;;;12.30;99.90;;;;;;5032048;28;20044;-68
2022/09/21 01:18:29;;;;;;;13.15;9.15;;;12.30;99.90;;;;;;5033823;28;20027;-66
2022/09/21 01:20:54;;;;;;;13.02;8.77;;;12.30;99.90;;;;;;5033953;28;20055;-67
2022/09/21 01:23:58;;;;;;;11.77;8.93;;;12.20;99.90;;;;;;5033782;28;20463;-67
2022/09/21 01:26:33;;;;;;;;;;;12.20;99.90;;;;;;5032825;28;20082;-67
2022/09/21 01:29:25;;;;;;;12.43;8.68;;;12.20;99.90;;;;;;5031287;28;19991;-67
2022/09/21 01:31:59;;;;;;;14.73;8.70;;;12.20;99.90;;;;;;5031922;28;20474;-66
2022/09/21 01:34:47;;;;;;;11.82;7.90;;;12.20;99.90;;;;;;5032999;28;20124;-67
2022/09/21 01:37:17;;;;;;;12.80;8.25;;;12.10;99.90;;;;;;5032292;28;20029;-67
2022/09/21 01:39:46;;;;;;;17.00;8.80;;;12.10;99.90;;;;;;5033403;28;20018;-67
2022/09/21 01:42:12;;;;;;;13.45;9.43;;;12.10;99.90;;;;;;5033222;28;20037;-67
2022/09/21 01:44:40;;;;;;;15.98;10.30;;;12.00;99.90;;;;;;5033347;28;20083;-67
2022/09/21 01:47:11;;;;;;;16.27;9.25;;;12.00;99.90;;;;;;5033195;28;20036;-66
2022/09/21 01:49:46;;;;;;;14.10;8.30;;;12.00;99.90;;;;;;5031124;28;20029;-66
2022/09/21 01:52:38;;;;;;;14.23;8.75;;;11.90;99.90;;;;;;5032146;28;20021;-66
2022/09/21 01:55:10;;;;;;;12.48;9.05;;;11.90;99.90;;;;;;5032067;28;20048;-67
2022/09/21 01:57:55;;;;;;;10.73;8.68;;;11.80;99.90;;;;;;5033266;28;20025;-67
2022/09/21 02:00:23;;;;;;;14.15;9.52;;;11.90;99.90;;;;;;5032548;28;20091;-68
2022/09/21 02:02:57;;;;;;;11.00;8.73;;;11.80;99.90;;;;;;5032898;28;20022;-67
2022/09/21 02:05:25;;;;;;;15.60;9.32;;;11.80;99.90;;;;;;5031360;28;20037;-67
2022/09/21 02:07:52;;;;;;;14.90;9.07;;;11.70;99.90;;;;;;5032735;28;20026;-67
2022/09/21 02:10:43;;;;;;;12.50;9.07;;;11.80;99.90;;;;;;5032020;28;20044;-67
2022/09/21 02:13:13;;;;;;;11.05;8.13;;;11.80;99.90;;;;;;5013135;28;20065;-67
2022/09/21 02:15:38;;;;;;;12.45;9.27;;;11.70;99.90;;;;;;5013952;28;20030;-67
2022/09/21 02:18:33;;;;;;;10.88;8.63;;;11.70;99.90;;;;;;5012134;28;20549;-67
2022/09/21 02:21:02;;;;;;;17.52;9.10;;;11.70;99.90;;;;;;5016374;28;20034;-67
2022/09/21 02:23:28;;;;;;;12.73;9.90;;;11.70;99.90;;;;;;5013269;28;20030;-67
2022/09/21 02:26:12;;;;;;;11.63;8.95;;;11.70;99.90;;;;;;5026305;28;20124;-67
2022/09/21 02:28:50;;;;;;;11.15;7.55;;;11.60;99.90;;;;;;5031585;28;20367;-67
2022/09/21 02:31:20;;;;;;;17.35;9.43;;;11.60;99.90;;;;;;5031485;28;20485;-67
2022/09/21 02:34:03;;;;;;;20.08;9.73;;;11.60;99.90;;;;;;5033117;28;20030;-67
2022/09/21 02:36:43;;;;;;;14.60;10.10;;;11.60;99.90;;;;;;5032388;28;20040;-67
2022/09/21 02:39:25;;;;;;;12.52;8.77;;;11.60;99.90;;;;;;5032114;28;20470;-67
2022/09/21 02:42:04;;;;;;;15.35;9.68;;;11.60;99.90;;;;;;5032341;28;20029;-67
2022/09/21 02:44:56;;;;;;;15.50;8.80;;;11.60;99.90;;;;;;5031734;28;20067;-67
2022/09/21 02:47:42;;;;;;;13.30;9.33;;;11.50;99.90;;;;;;5030516;28;20158;-67
2022/09/21 02:50:23;;;;;;;10.70;8.13;;;11.50;99.90;;;;;;5031380;28;20038;-67
2022/09/21 02:52:51;;;;;;;13.32;8.70;;;11.50;99.90;;;;;;5032183;28;20052;-67
2022/09/21 02:55:17;;;;;;;14.05;8.88;;;11.50;99.90;;;;;;5031064;28;20037;-66
2022/09/21 02:57:46;;;;;;;13.35;8.18;;;11.40;99.90;;;;;;5031615;28;20030;-67
2022/09/21 03:00:14;;;;;;;14.05;9.07;;;11.40;99.90;;;;;;5031325;28;20022;-67
2022/09/21 03:02:43;;;;;;;10.95;8.98;;;11.40;99.90;;;;;;5032618;28;20026;-66
2022/09/21 03:05:10;;;;;;;13.57;8.88;;;11.30;99.90;;;;;;5031018;28;20033;-66
2022/09/21 03:07:36;;;;;;;13.32;9.32;;;11.30;99.90;;;;;;5031465;28;20026;-67
2022/09/21 03:10:03;;;;;;;12.18;9.15;;;11.30;99.90;;;;;;5032477;28;20478;-67
2022/09/21 03:12:29;;;;;;;12.88;8.60;;;11.30;99.90;;;;;;5031808;28;20065;-67
2022/09/21 03:14:55;;;;;;;12.73;8.23;;;11.30;99.90;;;;;;5031734;28;20025;-68
2022/09/21 03:17:21;;;;;;;14.30;8.40;;;11.30;99.90;;;;;;5032143;28;20083;-68
2022/09/21 03:19:46;;;;;;;10.98;7.65;;;11.20;99.90;;;;;;5031746;28;20036;-67
2022/09/21 03:22:12;;;;;;;16.10;8.60;;;11.20;99.90;;;;;;5031685;28;20033;-68
2022/09/21 03:24:46;;;;;;;10.02;8.10;;;11.20;99.90;;;;;;5032352;28;20037;-67
2022/09/21 03:27:18;;;;;;;11.63;8.20;;;11.20;99.90;;;;;;5029974;28;20025;-67
2022/09/21 03:29:44;;;;;;;14.00;9.10;;;11.20;99.90;;;;;;5031182;28;20044;-68
2022/09/21 03:32:10;;;;;;;12.10;7.93;;;11.20;99.90;;;;;;5031965;28;20385;-67
2022/09/21 03:34:36;;;;;;;13.93;8.65;;;11.10;99.90;;;;;;5031352;28;20038;-67
2022/09/21 03:37:03;;;;;;;13.52;8.65;;;11.10;99.90;;;;;;5032554;28;20543;-67
2022/09/21 03:39:29;;;;;;;11.15;7.40;;;11.10;99.90;;;;;;5032373;28;20438;-67
2022/09/21 03:41:55;;;;;;;12.98;7.82;;;11.10;99.90;;;;;;5031601;28;20108;-68
2022/09/21 03:44:25;;;;;;;12.23;9.05;;;11.10;99.90;;;;;;5032075;28;20108;-67
2022/09/21 03:46:52;;;;;;;11.38;8.32;;;11.00;99.90;;;;;;5031003;28;20045;-68
2022/09/21 03:49:18;;;;;;;12.27;8.60;;;11.00;99.90;;;;;;5030656;28;20084;-67
2022/09/21 03:51:44;;;;;;;16.52;9.32;;;11.00;99.90;;;;;;5031768;28;20521;-67
2022/09/21 03:54:10;;;;;;;10.82;8.20;;;11.00;99.90;;;;;;5032342;28;20018;-66
2022/09/21 03:56:36;;;;;;;12.77;8.10;;;10.90;99.90;;;;;;5031934;28;20021;-69
2022/09/21 03:59:02;;;;;;;12.77;8.45;;;10.90;99.90;;;;;;5031825;28;20021;-67
2022/09/21 04:01:27;;;;;;;10.95;8.65;;;10.90;99.90;;;;;;5031888;28;20029;-67
2022/09/21 04:03:53;;;;;;;10.05;7.63;;;10.90;99.90;;;;;;5031539;28;20025;-68
2022/09/21 04:06:19;;;;;;;12.10;8.80;;;10.90;99.90;;;;;;5032011;28;20429;-67
2022/09/21 04:08:45;;;;;;;12.98;7.72;;;10.80;99.90;;;;;;5031654;28;20033;-67
2022/09/21 04:11:15;;;;;;;11.35;7.13;;;10.80;99.90;;;;;;5034055;28;20075;-68
2022/09/21 04:13:42;;;;;;;18.10;7.10;;;10.80;99.90;;;;;;5030656;28;20029;-68
2022/09/21 04:16:09;;;;;;;14.27;8.57;;;10.80;99.90;;;;;;5028987;28;20029;-68
2022/09/21 04:18:38;;;;;;;15.15;7.60;;;10.80;99.90;;;;;;5015681;28;20521;-67
2022/09/21 04:21:04;;;;;;;16.00;7.28;;;10.80;99.90;;;;;;5033439;28;20051;-67
2022/09/21 04:23:31;;;;;;;9.98;7.15;;;10.80;99.90;;;;;;5021069;28;20033;-67
2022/09/21 04:25:56;;;;;;;11.63;7.00;;;10.80;99.90;;;;;;5015525;28;20049;-67
2022/09/21 04:28:22;;;;;;;13.75;7.10;;;10.80;99.90;;;;;;5022972;28;20025;-67
2022/09/21 04:30:53;;;;;;;11.90;6.32;;;10.80;99.90;;;;;;5035171;28;20030;-66
2022/09/21 04:33:19;;;;;;;9.80;6.38;;;10.80;99.90;;;;;;5035288;28;20213;-67
2022/09/21 04:35:45;;;;;;;8.50;7.05;;;10.70;99.90;;;;;;5034482;28;20513;-68
2022/09/21 04:38:11;;;;;;;8.70;5.80;;;10.70;99.90;;;;;;5035436;28;20017;-69
2022/09/21 04:40:38;;;;;;;6.15;5.53;;;10.70;99.90;;;;;;5035252;28;20524;-68
2022/09/21 04:43:04;;;;;;;8.32;5.80;;;10.70;99.90;;;;;;5035425;28;20037;-67
2022/09/21 04:45:29;;;;;;;11.90;6.68;;;10.70;99.90;;;;;;5034930;28;20079;-67
2022/09/21 04:47:55;;;;;;;9.60;6.43;;;10.70;99.90;;;;;;5034587;28;20014;-68
2022/09/21 04:50:21;;;;;;;7.70;5.75;;;10.70;99.90;;;;;;5034485;28;20061;-68
2022/09/21 04:52:46;;;;;;;11.55;7.47;;;10.70;99.90;;;;;;5033822;28;20112;-67
2022/09/21 04:55:12;;;;;;;10.38;6.90;;;10.70;99.90;;;;;;5035037;28;20029;-67
2022/09/21 04:57:38;;;;;;;8.77;7.05;;;10.60;99.90;;;;;;5034793;28;20017;-67
2022/09/21 05:00:05;;;;;;;8.05;6.50;;;10.60;99.90;;;;;;5034635;28;20056;-67
2022/09/21 05:02:31;;;;;;;8.15;6.57;;;10.70;99.90;;;;;;5033679;28;20028;-67
2022/09/21 05:04:56;;;;;;;9.73;7.05;;;10.70;99.90;;;;;;5034350;28;20112;-68
2022/09/21 05:07:22;;;;;;;10.73;7.47;;;10.70;99.90;;;;;;5034359;28;20079;-67
2022/09/21 05:10:02;;;;;;;14.20;9.63;;;10.70;99.90;;;;;;5034535;28;20092;-67
2022/09/21 05:12:32;;;;;;;12.02;7.40;;;10.60;99.90;;;;;;5034275;28;20037;-67
2022/09/21 05:14:58;;;;;;;11.93;8.25;;;10.60;99.90;;;;;;5034659;28;20103;-67
2022/09/21 05:17:23;;;;;;;13.77;9.25;;;10.60;99.90;;;;;;5033972;28;20462;-67
2022/09/21 05:19:50;;;;;;;16.52;8.63;;;10.50;99.90;;;;;;5033840;28;20032;-67
2022/09/21 05:22:17;;;;;;;12.05;8.50;;;10.60;99.90;;;;;;5033557;28;20075;-67
2022/09/21 05:24:43;;;;;;;11.43;8.30;;;10.60;99.90;;;;;;5033830;28;20554;-67
2022/09/21 05:27:09;;;;;;;11.35;8.05;;;10.60;99.90;;;;;;5033963;28;20115;-68
2022/09/21 05:29:35;;;;;;;14.52;8.48;;;10.60;99.90;;;;;;5033538;28;20041;-67
2022/09/21 05:32:12;;;;;;;13.75;7.10;;;10.60;99.90;;;;;;5033723;28;20037;-67
2022/09/21 05:34:50;;;;;;;11.98;7.93;;;10.60;99.90;;;;;;5033600;28;20500;-68
2022/09/21 05:38:03;;;;;;;12.82;8.02;;;10.60;99.90;;;;;;5034288;28;20028;-68
2022/09/21 05:40:30;;;;;;;16.52;7.93;;;10.60;99.90;;;;;;5017179;28;20397;-66
2022/09/21 05:42:55;;;;;;;14.45;8.00;;;10.60;99.90;;;;;;5032241;28;20039;-67
2022/09/21 05:45:22;;;;;;;12.48;7.72;;;10.50;99.90;;;;;;5033626;28;20497;-67
2022/09/21 05:48:15;;;;;;;8.23;7.07;;;10.60;99.90;;;;;;5033796;28;20021;-67
2022/09/21 05:51:00;;;;;;;;;;;10.60;99.90;;;;;;5033706;28;20036;-66
2022/09/21 05:53:44;;;;;;;9.07;6.75;;;10.60;99.90;;;;;;5033357;28;20293;-67
2022/09/21 05:56:48;;;;;;;9.68;7.15;;;10.70;99.90;;;;;;5032920;28;20056;-67
2022/09/21 05:59:30;;;;;;;8.98;6.90;;;10.70;99.90;;;;;;5032793;28;20096;-67
2022/09/21 06:02:04;;;;;;;8.88;7.18;;;10.80;99.90;;;;;;5033443;28;20536;-67
2022/09/21 06:04:30;;;;;;;13.23;7.63;;;10.80;99.90;;;;;;5031926;28;20068;-67
2022/09/21 06:06:56;;;;;;;9.35;6.60;;;10.80;99.90;;;;;;5032988;28;20022;-67
2022/09/21 06:09:21;;;;;;;13.75;7.80;;;10.80;99.90;;;;;;5033684;28;20435;-67
2022/09/21 06:11:47;;;;;;;10.82;7.07;;;10.70;99.90;;;;;;5033011;28;20390;-67
2022/09/21 06:14:13;;;;;;;21.02;7.60;;;10.80;99.90;;;;;;5032948;28;20025;-67
2022/09/21 06:16:40;;;;;;;11.85;7.65;;;10.80;99.90;;;;;;5033359;28;20037;-67
2022/09/21 06:19:06;;;;;;;8.02;6.78;;;10.80;99.90;;;;;;5032244;28;20076;-66
2022/09/21 06:21:32;;;;;;;10.10;7.20;;;10.80;99.90;;;;;;5031577;28;20659;-67
2022/09/21 06:23:57;;;;;;;15.00;7.10;;;10.80;99.90;;;;;;5033410;28;20025;-67
2022/09/21 06:26:23;;;;;;;13.77;7.10;;;10.90;99.90;;;;;;5037167;28;20025;-66
2022/09/21 06:28:49;;;;;;;9.38;6.85;;;11.00;99.90;;;;;;5031879;28;20029;-67
2022/09/21 06:31:14;;;;;;;12.00;6.57;;;11.00;99.90;;;;;;5030896;28;20029;-66
2022/09/21 06:33:40;;;;;;;10.32;7.43;;;11.10;99.90;;;;;;5031421;28;20029;-66
2022/09/21 06:36:05;;;;;;;13.25;7.22;;;11.10;99.90;;;;;;5033115;28;20025;-66
2022/09/21 06:38:34;;;;;;;10.75;6.60;;;11.20;99.90;;;;;;5033142;28;20049;-66
2022/09/21 06:41:04;;;;;;;11.27;6.72;;;11.20;99.90;;;;;;5031916;28;20536;-66
2022/09/21 06:43:31;;;;;;;11.48;7.60;;;11.20;99.90;;;;;;5032847;28;20025;-66
2022/09/21 06:45:58;;;;;;;12.18;7.50;;;11.20;99.90;;;;;;5032710;28;20029;-66
2022/09/21 06:48:25;;;;;;;9.43;7.40;;;11.30;99.90;;;;;;5032446;28;20043;-67
2022/09/21 06:50:59;;;;;;;9.70;6.90;;;11.40;99.90;;;;;;5032707;28;20466;-66
2022/09/21 06:53:26;;;;;;;10.55;6.72;;;11.30;99.90;;;;;;5032396;28;20109;-66
2022/09/21 06:55:52;;;;;;;10.25;6.38;;;11.30;99.90;;;;;;5032864;28;20474;-66
2022/09/21 06:58:18;;;;;;;9.30;6.50;;;11.40;99.90;;;;;;5031152;28;20032;-66
2022/09/21 07:00:45;;;;;;;9.25;7.28;;;11.40;99.90;;;;;;5045545;28;20018;-66
2022/09/21 07:03:14;;;;;;;11.02;7.45;;;11.50;99.90;;;;;;5032206;28;20025;-66
2022/09/21 07:05:39;;;;;;;12.23;7.25;;;11.60;99.90;;;;;;5031978;28;20021;-67
2022/09/21 07:08:05;;;;;;;13.93;8.23;;;11.60;99.90;;;;;;5032393;28;20059;-66
2022/09/21 07:10:31;;;;;;;13.10;6.72;;;11.70;99.90;;;;;;5031521;28;20042;-66
2022/09/21 07:13:02;;;;;;;16.77;8.23;;;11.60;99.90;;;;;;5032325;28;20034;-66
2022/09/21 07:15:30;;;;;;;14.82;9.70;;;11.70;99.90;;;;;;5032403;28;20056;-66
2022/09/21 07:17:55;;;;;;;16.65;10.02;;;11.80;99.90;;;;;;5032443;28;20017;-66
2022/09/21 07:20:21;;;;;;;14.38;8.93;;;11.80;99.90;;;;;;5028999;28;20028;-67
2022/09/21 07:22:47;;;;;;;17.35;9.93;;;11.90;99.90;;;;;;5031717;28;20390;-66
2022/09/21 07:25:13;;;;;;;15.70;9.02;;;12.00;99.90;;;;;;5031886;28;20097;-67
2022/09/21 07:27:39;;;;;;;19.85;9.82;;;12.00;99.90;;;;;;5032036;28;20052;-67
2022/09/21 07:30:06;;;;;;;18.65;10.10;;;12.10;99.90;;;;;;5030789;28;20111;-66
2022/09/21 07:32:32;;;;;;;21.38;11.00;;;12.20;99.90;;;;;;5030257;28;20067;-67
2022/09/21 07:34:57;;;;;;;18.85;11.05;;;12.30;99.90;;;;;;5031876;28;20429;-66
2022/09/21 07:37:24;;;;;;;19.58;10.55;;;12.30;99.90;;;;;;5031846;28;20025;-67
2022/09/21 07:39:51;;;;;;;22.20;10.90;;;12.30;99.90;;;;;;5033374;28;20080;-66
2022/09/21 07:42:18;;;;;;;21.92;9.43;;;12.40;99.90;;;;;;5028306;28;20033;-67
2022/09/21 07:44:45;;;;;;;18.00;11.32;;;12.50;99.90;;;;;;5034191;28;20025;-67
2022/09/21 07:47:12;;;;;;;15.45;10.90;;;12.60;99.90;;;;;;5034994;28;20053;-66
2022/09/21 07:49:38;;;;;;;25.13;14.65;;;12.70;99.90;;;;;;5035721;28;20480;-67
2022/09/21 07:52:04;;;;;;;28.23;14.88;;;12.70;99.90;;;;;;5035905;28;20056;-66
2022/09/21 07:54:32;;;;;;;20.35;14.75;;;12.90;99.90;;;;;;5035149;28;20025;-67
2022/09/21 07:59:42;;;;;;;33.22;15.25;;;12.90;99.90;;;;;;5035841;28;20444;-68
2022/09/21 08:02:08;;;;;;;29.92;16.20;;;13.10;99.90;;;;;;5035351;28;20025;-66
2022/09/21 08:04:33;;;;;;;26.92;16.30;;;13.10;99.90;;;;;;5010731;28;20190;-66
2022/09/21 08:06:59;;;;;;;25.20;15.35;;;13.20;99.90;;;;;;5026038;28;20056;-66
2022/09/21 08:09:25;;;;;;;21.10;13.18;;;13.20;99.90;;;;;;5034515;28;20494;-67
2022/09/21 08:11:51;;;;;;;20.40;12.98;;;13.30;99.90;;;;;;5037967;28;20036;-66
2022/09/21 08:14:20;;;;;;;20.42;13.18;;;13.40;99.90;;;;;;5040562;28;20040;-67
2022/09/21 08:16:46;;;;;;;18.05;12.63;;;13.50;99.90;;;;;;5051223;28;20028;-66
2022/09/21 08:19:13;;;;;;;25.52;12.88;;;13.50;99.90;;;;;;5040196;28;20025;-66
2022/09/21 08:21:39;;;;;;;25.60;15.75;;;13.60;99.90;;;;;;5046355;28;20029;-66
2022/09/21 08:24:06;;;;;;;29.20;14.65;;;13.60;99.90;;;;;;5046951;28;20049;-68
2022/09/21 08:26:32;;;;;;;19.25;8.73;;;13.60;99.90;;;;;;5038056;28;20026;-67
2022/09/21 08:28:58;;;;;;;22.85;13.07;;;13.70;99.90;;;;;;5050531;28;20072;-67
2022/09/21 08:31:24;;;;;;;23.65;11.82;;;13.80;99.90;;;;;;5034532;28;20025;-67
2022/09/21 08:33:51;;;;;;;19.08;11.93;;;13.80;99.90;;;;;;5038593;28;20477;-67
2022/09/21 08:36:17;;;;;;;16.45;10.35;;;13.90;99.90;;;;;;5048115;28;20067;-68
2022/09/21 08:38:43;;;;;;;25.73;10.60;;;14.00;99.90;;;;;;5037065;28;20060;-67
2022/09/21 08:41:16;;;;;;;21.40;10.60;;;14.10;99.90;;;;;;5052539;28;20056;-67
2022/09/21 08:43:46;;;;;;;19.80;10.15;;;14.10;99.90;;;;;;5044532;28;20032;-67
2022/09/21 08:46:17;;;;;;;16.67;8.63;;;14.20;99.90;;;;;;5034119;28;20033;-67
2022/09/21 08:48:53;;;;;;;26.83;9.57;;;14.30;99.90;;;;;;5036327;28;20429;-68
2022/09/21 08:51:25;;;;;;;14.50;7.88;;;14.30;99.90;;;;;;5047993;28;20021;-66
2022/09/21 08:54:00;;;;;;;13.63;6.18;;;14.40;99.90;;;;;;5044529;28;20017;-67
2022/09/21 08:56:26;;;;;;;13.82;8.27;;;14.40;99.90;;;;;;5039535;28;20114;-68
2022/09/21 08:58:52;;;;;;;10.23;6.60;;;14.40;99.90;;;;;;5046289;28;20040;-67
2022/09/21 09:01:32;;;;;;;10.02;6.07;;;14.50;99.90;;;;;;5034352;28;20021;-67
2022/09/21 09:04:06;;;;;;;11.90;5.68;;;14.50;99.90;;;;;;5031754;28;20026;-70
2022/09/21 09:06:54;;;;;;;14.10;6.40;;;14.60;99.90;;;;;;5030624;28;20225;-71
2022/09/21 09:09:50;;;;;;;8.98;5.75;;;14.70;99.90;;;;;;5021266;28;20479;-71
2022/09/21 09:13:05;;;;;;;11.25;5.30;;;14.70;99.90;;;;;;5045483;28;20073;-70
2022/09/21 09:15:30;;;;;;;17.65;5.13;;;14.80;99.90;;;;;;5037563;28;20041;-66
2022/09/21 09:18:19;;;;;;;13.00;4.07;;;14.90;99.90;;;;;;5052030;28;20029;-66
2022/09/21 09:20:57;;;;;;;9.02;3.13;;;15.00;99.90;;;;;;5037218;28;20081;-66
2022/09/21 09:23:45;;;;;;;9.80;3.03;;;15.10;99.90;;;;;;5046939;28;20021;-67
2022/09/21 09:26:20;;;;;;;6.90;2.80;;;15.10;99.90;;;;;;5042529;28;20044;-66
2022/09/21 09:29:00;;;;;;;8.35;2.50;;;15.30;99.90;;;;;;5033223;28;20029;-67
2022/09/21 09:31:36;;;;;;;6.30;1.67;;;15.40;99.90;;;;;;5041153;28;20029;-66
2022/09/21 09:34:15;;;;;;;4.88;2.00;;;15.50;99.90;;;;;;5037596;28;20087;-67
2022/09/21 09:36:45;;;;;;;6.15;1.45;;;15.70;99.90;;;;;;5049458;28;20461;-67
2022/09/21 09:39:13;;;;;;;7.00;2.53;;;15.90;99.90;;;;;;5037928;28;20078;-68
2022/09/21 09:41:45;;;;;;;5.60;2.03;;;16.10;99.90;;;;;;5043727;28;20084;-67
2022/09/21 09:44:46;;;;;;;5.35;1.70;;;16.30;99.90;;;;;;5045660;28;20043;-67
2022/09/21 09:47:27;;;;;;;4.50;1.77;;;16.40;99.90;;;;;;5057596;28;20041;-67
2022/09/21 09:49:52;;;;;;;7.13;1.92;;;16.50;99.90;;;;;;5041796;28;20038;-68
2022/09/21 09:52:18;;;;;;;3.60;1.60;;;16.60;99.90;;;;;;5045221;28;20021;-67
2022/09/21 09:54:44;;;;;;;7.20;1.90;;;16.70;99.90;;;;;;5036359;28;20030;-67
2022/09/21 09:57:11;;;;;;;9.63;2.65;;;16.90;99.90;;;;;;5048225;28;20021;-67
2022/09/21 09:59:41;;;;;;;4.50;1.98;;;17.10;99.90;;;;;;5040571;28;20054;-67
2022/09/21 10:02:19;;;;;;;10.73;1.67;;;17.30;99.90;;;;;;5039834;28;20521;-67
2022/09/21 10:05:07;;;;;;;6.70;1.50;;;17.50;99.90;;;;;;5034483;28;20068;-67
2022/09/21 10:07:41;;;;;;;6.65;2.33;;;17.60;99.90;;;;;;5042759;28;20029;-67
2022/09/21 10:10:31;;;;;;;9.13;1.85;;;17.60;99.90;;;;;;5037089;28;20067;-67
2022/09/21 10:13:25;;;;;;;6.95;1.98;;;17.70;99.90;;;;;;5035837;28;20393;-68
2022/09/21 10:15:54;;;;;;;6.85;1.98;;;17.90;99.90;;;;;;5040843;28;20470;-68
2022/09/21 10:18:26;;;;;;;6.03;1.92;;;17.90;99.90;;;;;;5034306;28;20878;-68
2022/09/21 10:20:58;;;;;;;7.82;2.10;;;17.60;99.90;;;;;;5048569;28;20501;-67
2022/09/21 10:23:25;;;;;;;10.88;2.67;;;17.40;99.90;;;;;;5038199;28;20028;-67
2022/09/21 10:26:12;;;;;;;6.90;2.55;;;17.30;99.90;;;;;;5041883;28;20501;-67
2022/09/21 10:28:57;;;;;;;7.43;1.60;;;17.10;99.90;;;;;;5048129;28;20028;-67
2022/09/21 10:31:25;;;;;;;5.20;1.50;;;17.10;99.90;;;;;;5037287;28;20066;-67
2022/09/21 10:34:13;;;;;;;7.05;2.20;;;16.90;99.90;;;;;;5041109;28;20404;-67
2022/09/21 10:36:38;;;;;;;6.43;1.88;;;16.90;99.90;;;;;;5036262;28;20033;-67
2022/09/21 10:39:29;;;;;;;5.03;1.75;;;16.80;99.90;;;;;;5048117;28;20017;-68
2022/09/21 10:42:02;;;;;;;8.63;1.98;;;16.80;99.90;;;;;;5033071;28;20033;-68
2022/09/21 10:44:50;;;;;;;6.60;2.00;;;17.00;99.90;;;;;;5046286;28;20079;-67
2022/09/21 10:47:36;;;;;;;3.58;1.70;;;17.20;99.90;;;;;;5035452;28;20500;-69
2022/09/21 10:50:19;;;;;;;6.25;1.45;;;17.00;99.90;;;;;;5039490;28;20034;-68
2022/09/21 10:52:45;;;;;;;5.07;2.20;;;16.90;99.90;;;;;;5047786;28;20021;-67
2022/09/21 10:55:16;;;;;;;4.13;1.58;;;16.90;99.90;;;;;;5035523;28;20435;-68
2022/09/21 10:57:43;;;;;;;5.82;1.60;;;16.80;99.90;;;;;;5032045;28;20018;-67
2022/09/21 11:00:23;;;;;;;9.73;2.05;;;16.80;99.90;;;;;;5043660;28;20536;-67
2022/09/21 11:02:49;;;;;;;6.57;1.80;;;16.80;99.90;;;;;;5033672;28;20381;-67
2022/09/21 11:05:47;;;;;;;4.55;1.58;;;16.80;99.90;;;;;;5036724;28;20104;-68
2022/09/21 11:08:22;;;;;;;8.27;1.73;;;16.80;99.90;;;;;;5028426;28;20033;-68
2022/09/21 11:11:06;;;;;;;6.90;2.25;;;16.90;99.90;;;;;;5030431;28;20029;-67
2022/09/21 11:13:37;;;;;;;8.30;1.67;;;16.80;99.90;;;;;;5030578;28;20043;-68
2022/09/21 11:16:20;;;;;;;6.22;1.65;;;16.90;99.90;;;;;;5030542;28;20030;-67
2022/09/21 11:19:04;;;;;;;4.18;1.27;;;16.80;99.90;;;;;;5032207;28;20160;-68
2022/09/21 11:22:01;;;;;;;6.78;1.52;;;16.80;99.90;;;;;;5030277;28;20033;-69
2022/09/21 11:24:48;;;;;;;10.27;1.92;;;16.80;99.90;;;;;;5030675;28;20017;-71
2022/09/21 11:27:34;;;;;;;6.15;1.85;;;16.80;99.90;;;;;;5030010;28;20031;-68
2022/09/21 11:30:13;;;;;;;11.30;2.00;;;16.80;99.90;;;;;;5029642;28;20087;-68
2022/09/21 11:33:09;;;;;;;4.95;1.60;;;16.80;99.90;;;;;;5029419;28;20437;-68
2022/09/21 11:35:41;;;;;;;6.88;2.45;;;16.80;99.90;;;;;;5032512;28;20033;-69
2022/09/21 11:38:21;;;;;;;6.45;2.60;;;17.00;99.90;;;;;;5032568;28;20138;-69
2022/09/21 11:41:19;;;;;;;6.88;2.83;;;17.00;99.90;;;;;;5032484;28;20037;-69
2022/09/21 11:44:18;;;;;;;8.63;2.75;;;17.00;99.90;;;;;;5031336;28;20041;-69
2022/09/21 11:47:04;;;;;;;7.00;2.80;;;17.00;99.90;;;;;;5030675;28;20123;-68
2022/09/21 11:49:55;;;;;;;9.25;2.20;;;17.00;99.90;;;;;;5031307;28;20037;-69
2022/09/21 11:52:39;;;;;;;6.03;2.10;;;16.80;99.90;;;;;;5030575;28;20029;-69
2022/09/21 11:55:27;;;;;;;7.55;2.10;;;16.80;99.90;;;;;;5015340;28;20039;-69
2022/09/21 11:58:09;;;;;;;8.55;1.60;;;16.80;99.90;;;;;;5041869;28;20104;-69
2022/09/21 12:00:50;;;;;;;10.73;1.90;;;16.80;99.90;;;;;;5028194;28;20018;-70
2022/09/21 12:04:04;;;;;;;5.28;1.80;;;16.80;99.90;;;;;;5030572;28;20453;-69
2022/09/21 12:06:42;;;;;;;7.07;2.58;;;16.70;99.90;;;;;;4995012;28;20033;-70
2022/09/21 12:09:37;;;;;;;11.25;2.47;;;16.80;99.90;;;;;;5031428;28;20048;-69
2022/09/21 12:12:44;;;;;;;5.22;2.30;;;16.80;99.90;;;;;;5030695;28;20037;-69
2022/09/21 12:15:13;;;;;;;6.43;2.03;;;16.90;99.90;;;;;;5021515;28;20037;-68
2022/09/21 12:17:57;;;;;;;5.55;2.28;;;17.00;99.90;;;;;;5031594;28;20126;-69
2022/09/21 12:20:33;;;;;;;6.70;1.98;;;17.10;99.90;;;;;;5031204;28;20482;-69
2022/09/21 12:23:09;;;;;;;4.50;2.45;;;17.20;99.90;;;;;;5033597;28;20032;-69
2022/09/21 12:25:43;;;;;;;4.13;1.70;;;17.10;99.90;;;;;;5039889;28;20025;-69
2022/09/21 12:28:44;;;;;;;6.63;1.92;;;17.00;99.90;;;;;;5041230;28;20424;-69
2022/09/21 12:31:21;;;;;;;6.10;1.70;;;17.30;99.90;;;;;;5049544;28;20049;-68
2022/09/21 12:33:52;;;;;;;6.15;1.20;;;17.60;99.90;;;;;;5045017;28;20021;-69
2022/09/21 12:36:32;;;;;;;5.80;1.37;;;17.90;99.90;;;;;;5044285;28;20030;-69
2022/09/21 12:39:04;;;;;;;2.45;0.85;;;18.00;99.90;;;;;;5050493;28;20026;-68
2022/09/21 12:41:46;;;;;;;3.88;1.35;;;18.30;99.90;;;;;;5039894;28;20100;-68
2022/09/21 12:44:50;;;;;;;6.22;1.15;;;18.40;99.90;;;;;;5041271;28;20021;-68
2022/09/21 12:47:34;;;;;;;2.65;1.20;;;18.30;99.90;;;;;;5025065;28;20021;-68
2022/09/21 12:50:25;;;;;;;3.70;1.67;;;18.40;99.90;;;;;;5037181;28;20033;-70
2022/09/21 12:52:52;;;;;;;4.80;1.38;;;18.40;99.90;;;;;;5040327;28;20029;-68
2022/09/21 12:55:33;;;;;;;5.63;1.23;;;18.30;99.90;;;;;;5032464;28;20021;-70
2022/09/21 12:58:36;;;;;;;4.07;1.17;;;18.30;99.90;;;;;;5033896;28;20032;-69
2022/09/21 13:01:12;;;;;;;5.32;0.95;;;18.20;99.90;;;;;;5031617;28;20536;-69
2022/09/21 13:03:54;;;;;;;7.53;1.70;;;18.20;99.90;;;;;;5032864;28;20022;-68
2022/09/21 13:06:59;;;;;;;5.43;1.67;;;18.20;99.90;;;;;;5046810;28;20029;-70
2022/09/21 13:09:27;;;;;;;4.95;1.50;;;18.40;99.90;;;;;;5033020;28;20072;-69
2022/09/21 13:11:59;;;;;;;8.82;1.65;;;18.70;99.90;;;;;;5031764;28;20113;-69
2022/09/21 13:14:28;;;;;;;4.00;1.80;;;18.70;99.90;;;;;;5034489;28;20048;-70